Main page
METAR-TAF:

METAR-TAF

Airports :

Zeltweg Air Base

Zeltweg, Austria

latitude: 47-12N, longitude: 014-45E, elevation: 677 m

Current weather observation

The report was made 36 minutes ago, at 16:50 UTC
Wind 10 kt from the East/Southeast
Temperature 18°C
Humidity 34%
Pressure 1008 hPa

METAR: LOXZ 221650Z 12010KT 40KM FEW070CU BKN090AC 18/02 Q1008 NOSIG

Time: 19:26 (17:26 UTC)

Forecast

The report was made 3 hours and 11 minutes ago, at 14:15 UTC
Forecast valid from 22 at 15 UTC to 22 at 24 UTC
Wind 3 kt from variable directions
Visibility 10 km or more
Few clouds at a height of 7000 ft
Scattered clouds at a height of 30000 ft
Temporary
from 22 at 15 UTC to 22 at 18 UTC
Wind 10 kt from the Southeast

TAF: LOXZ 221415Z 2215/2224 VRB03KT 9999 FEW070 SCT300 TEMPO 2215/2218 14010KT

Weather observations and forecasts of more than 4000 airports (METAR and TAF reports).

The available stations are represented by yellow and red dots on the map.

Hover mouse over dot to see the name of the station.

Then click to see weather observations and forecasts.

To change the map : click on the green buttons with a black cross to zoom in, on the green button with a dash to zoom out, or on the green arrows for adjacent maps.


METAR-TAF: